sensor_id;sensor_type;location;lat;lon;timestamp;temperature;humidity
65985;HTU21D;52748;51.112;5.880;2023-07-20T00:01:24;26.10;54.07
65985;HTU21D;52748;51.112;5.880;2023-07-20T00:03:50;26.10;54.01
65985;HTU21D;52748;51.112;5.880;2023-07-20T00:06:25;26.10;53.91
65985;HTU21D;52748;51.112;5.880;2023-07-20T00:08:56;26.09;54.08
65985;HTU21D;52748;51.112;5.880;2023-07-20T00:11:27;26.08;53.96
65985;HTU21D;52748;51.112;5.880;2023-07-20T00:13:53;26.09;54.04
65985;HTU21D;52748;51.112;5.880;2023-07-20T00:16:19;26.07;54.14
65985;HTU21D;52748;51.112;5.880;2023-07-20T00:18:45;26.08;54.20
65985;HTU21D;52748;51.112;5.880;2023-07-20T00:21:10;26.08;54.09
65985;HTU21D;52748;51.112;5.880;2023-07-20T00:23:37;26.07;54.05
65985;HTU21D;52748;51.112;5.880;2023-07-20T00:26:03;26.07;54.34
65985;HTU21D;52748;51.112;5.880;2023-07-20T00:28:29;26.08;54.35
65985;HTU21D;52748;51.112;5.880;2023-07-20T00:30:55;26.08;54.22
65985;HTU21D;52748;51.112;5.880;2023-07-20T00:33:20;26.08;54.33
65985;HTU21D;52748;51.112;5.880;2023-07-20T00:35:46;26.06;54.17
65985;HTU21D;52748;51.112;5.880;2023-07-20T00:38:12;26.08;54.04
65985;HTU21D;52748;51.112;5.880;2023-07-20T00:40:39;26.08;54.01
65985;HTU21D;52748;51.112;5.880;2023-07-20T00:43:06;26.08;54.18
65985;HTU21D;52748;51.112;5.880;2023-07-20T00:45:33;26.07;54.25
65985;HTU21D;52748;51.112;5.880;2023-07-20T00:48:01;26.07;54.13
65985;HTU21D;52748;51.112;5.880;2023-07-20T00:50:28;26.07;54.17
65985;HTU21D;52748;51.112;5.880;2023-07-20T00:52:55;26.07;54.36
65985;HTU21D;52748;51.112;5.880;2023-07-20T00:55:24;26.06;54.01
65985;HTU21D;52748;51.112;5.880;2023-07-20T00:57:50;26.06;53.77
65985;HTU21D;52748;51.112;5.880;2023-07-20T01:00:19;26.08;53.75
65985;HTU21D;52748;51.112;5.880;2023-07-20T01:02:45;26.06;54.21
65985;HTU21D;52748;51.112;5.880;2023-07-20T01:05:13;26.06;54.04
65985;HTU21D;52748;51.112;5.880;2023-07-20T01:08:03;26.06;54.13
65985;HTU21D;52748;51.112;5.880;2023-07-20T01:10:52;26.05;54.10
65985;HTU21D;52748;51.112;5.880;2023-07-20T01:13:22;26.05;54.44
65985;HTU21D;52748;51.112;5.880;2023-07-20T01:16:01;26.05;54.32
65985;HTU21D;52748;51.112;5.880;2023-07-20T01:18:27;26.06;54.39
65985;HTU21D;52748;51.112;5.880;2023-07-20T01:21:18;26.05;54.47
65985;HTU21D;52748;51.112;5.880;2023-07-20T01:26:47;26.04;54.42
65985;HTU21D;52748;51.112;5.880;2023-07-20T01:32:23;26.04;54.20
65985;HTU21D;52748;51.112;5.880;2023-07-20T01:34:53;26.04;54.17
65985;HTU21D;52748;51.112;5.880;2023-07-20T01:37:21;26.03;54.28
65985;HTU21D;52748;51.112;5.880;2023-07-20T01:39:52;26.03;54.39
65985;HTU21D;52748;51.112;5.880;2023-07-20T01:42:22;26.02;54.20
65985;HTU21D;52748;51.112;5.880;2023-07-20T01:44:50;26.02;54.19
65985;HTU21D;52748;51.112;5.880;2023-07-20T01:47:17;26.02;54.12
65985;HTU21D;52748;51.112;5.880;2023-07-20T01:49:42;26.06;53.90
65985;HTU21D;52748;51.112;5.880;2023-07-20T01:52:08;26.02;54.08
65985;HTU21D;52748;51.112;5.880;2023-07-20T01:54:34;26.03;54.10
65985;HTU21D;52748;51.112;5.880;2023-07-20T01:57:00;26.03;54.26
65985;HTU21D;52748;51.112;5.880;2023-07-20T01:59:26;26.04;54.18
65985;HTU21D;52748;51.112;5.880;2023-07-20T02:01:52;26.03;54.32
65985;HTU21D;52748;51.112;5.880;2023-07-20T02:04:18;26.02;54.39
65985;HTU21D;52748;51.112;5.880;2023-07-20T02:06:44;26.01;54.61
65985;HTU21D;52748;51.112;5.880;2023-07-20T02:09:10;26.02;54.44
65985;HTU21D;52748;51.112;5.880;2023-07-20T02:11:36;26.01;54.63
65985;HTU21D;52748;51.112;5.880;2023-07-20T02:14:02;26.01;54.39
65985;HTU21D;52748;51.112;5.880;2023-07-20T02:16:28;26.01;54.29
65985;HTU21D;52748;51.112;5.880;2023-07-20T02:18:54;25.99;54.08
65985;HTU21D;52748;51.112;5.880;2023-07-20T02:21:22;25.99;54.20
65985;HTU21D;52748;51.112;5.880;2023-07-20T02:23:48;26.01;54.36
65985;HTU21D;52748;51.112;5.880;2023-07-20T02:26:14;26.01;54.37
65985;HTU21D;52748;51.112;5.880;2023-07-20T02:28:40;25.99;54.31
65985;HTU21D;52748;51.112;5.880;2023-07-20T02:31:07;25.98;54.23
65985;HTU21D;52748;51.112;5.880;2023-07-20T02:33:33;25.99;54.53
65985;HTU21D;52748;51.112;5.880;2023-07-20T02:35:58;25.98;54.57
65985;HTU21D;52748;51.112;5.880;2023-07-20T02:38:24;25.97;54.38
65985;HTU21D;52748;51.112;5.880;2023-07-20T02:40:50;25.97;54.33
65985;HTU21D;52748;51.112;5.880;2023-07-20T02:43:17;25.98;54.42
65985;HTU21D;52748;51.112;5.880;2023-07-20T02:45:44;25.99;54.67
65985;HTU21D;52748;51.112;5.880;2023-07-20T02:48:10;25.97;54.57
65985;HTU21D;52748;51.112;5.880;2023-07-20T02:50:36;25.99;54.57
65985;HTU21D;52748;51.112;5.880;2023-07-20T02:53:02;25.98;54.40
65985;HTU21D;52748;51.112;5.880;2023-07-20T02:55:28;25.97;54.55
65985;HTU21D;52748;51.112;5.880;2023-07-20T02:57:54;25.96;54.59
65985;HTU21D;52748;51.112;5.880;2023-07-20T03:00:19;25.97;54.62
65985;HTU21D;52748;51.112;5.880;2023-07-20T03:02:46;25.97;54.41
65985;HTU21D;52748;51.112;5.880;2023-07-20T03:05:18;25.98;54.36
65985;HTU21D;52748;51.112;5.880;2023-07-20T03:07:44;25.96;54.51
65985;HTU21D;52748;51.112;5.880;2023-07-20T03:10:10;25.96;54.67
65985;HTU21D;52748;51.112;5.880;2023-07-20T03:12:36;25.97;54.55
65985;HTU21D;52748;51.112;5.880;2023-07-20T03:15:02;25.96;54.56
65985;HTU21D;52748;51.112;5.880;2023-07-20T03:17:29;25.94;54.61
65985;HTU21D;52748;51.112;5.880;2023-07-20T03:19:55;25.95;54.69
65985;HTU21D;52748;51.112;5.880;2023-07-20T03:22:22;25.95;54.75
65985;HTU21D;52748;51.112;5.880;2023-07-20T03:24:48;25.95;54.65
65985;HTU21D;52748;51.112;5.880;2023-07-20T03:27:13;25.95;54.75
65985;HTU21D;52748;51.112;5.880;2023-07-20T03:29:39;25.95;54.54
65985;HTU21D;52748;51.112;5.880;2023-07-20T03:32:06;25.95;54.56
65985;HTU21D;52748;51.112;5.880;2023-07-20T03:34:31;25.95;54.43
65985;HTU21D;52748;51.112;5.880;2023-07-20T03:36:57;25.96;54.26
65985;HTU21D;52748;51.112;5.880;2023-07-20T03:39:24;25.95;54.50
65985;HTU21D;52748;51.112;5.880;2023-07-20T03:41:50;25.95;54.67
65985;HTU21D;52748;51.112;5.880;2023-07-20T03:44:16;25.95;54.67
65985;HTU21D;52748;51.112;5.880;2023-07-20T03:46:43;25.94;54.45
65985;HTU21D;52748;51.112;5.880;2023-07-20T03:49:09;25.93;54.73
65985;HTU21D;52748;51.112;5.880;2023-07-20T03:51:35;25.95;54.70
65985;HTU21D;52748;51.112;5.880;2023-07-20T03:54:01;25.95;54.53
65985;HTU21D;52748;51.112;5.880;2023-07-20T03:56:27;25.93;54.58
65985;HTU21D;52748;51.112;5.880;2023-07-20T03:58:53;25.93;54.76
65985;HTU21D;52748;51.112;5.880;2023-07-20T04:01:19;25.93;54.62
65985;HTU21D;52748;51.112;5.880;2023-07-20T04:03:45;25.93;54.53
65985;HTU21D;52748;51.112;5.880;2023-07-20T04:06:11;25.92;54.59
65985;HTU21D;52748;51.112;5.880;2023-07-20T04:08:37;25.92;54.71
65985;HTU21D;52748;51.112;5.880;2023-07-20T04:11:03;25.93;54.79
65985;HTU21D;52748;51.112;5.880;2023-07-20T04:13:30;25.93;54.85
65985;HTU21D;52748;51.112;5.880;2023-07-20T04:16:01;25.92;54.75
65985;HTU21D;52748;51.112;5.880;2023-07-20T04:18:28;25.92;54.62
65985;HTU21D;52748;51.112;5.880;2023-07-20T04:20:54;25.94;54.73
65985;HTU21D;52748;51.112;5.880;2023-07-20T04:23:20;25.93;54.58
65985;HTU21D;52748;51.112;5.880;2023-07-20T04:25:46;25.92;54.58
65985;HTU21D;52748;51.112;5.880;2023-07-20T04:28:13;25.94;54.81
65985;HTU21D;52748;51.112;5.880;2023-07-20T04:30:43;25.92;54.69
65985;HTU21D;52748;51.112;5.880;2023-07-20T04:33:09;25.93;54.75
65985;HTU21D;52748;51.112;5.880;2023-07-20T04:35:53;25.93;54.81
65985;HTU21D;52748;51.112;5.880;2023-07-20T04:38:23;25.92;54.78
65985;HTU21D;52748;51.112;5.880;2023-07-20T04:40:57;25.92;54.91
65985;HTU21D;52748;51.112;5.880;2023-07-20T04:43:23;25.90;54.89
65985;HTU21D;52748;51.112;5.880;2023-07-20T04:45:49;25.91;54.89
65985;HTU21D;52748;51.112;5.880;2023-07-20T04:48:16;25.91;54.94
65985;HTU21D;52748;51.112;5.880;2023-07-20T04:50:49;25.92;54.97
65985;HTU21D;52748;51.112;5.880;2023-07-20T04:53:15;25.90;55.11
65985;HTU21D;52748;51.112;5.880;2023-07-20T04:55:48;25.90;54.92
65985;HTU21D;52748;51.112;5.880;2023-07-20T04:58:20;25.91;54.87
65985;HTU21D;52748;51.112;5.880;2023-07-20T05:00:47;25.92;54.95
65985;HTU21D;52748;51.112;5.880;2023-07-20T05:03:13;25.93;54.97
65985;HTU21D;52748;51.112;5.880;2023-07-20T05:05:39;25.92;54.93
65985;HTU21D;52748;51.112;5.880;2023-07-20T05:08:06;25.93;55.13
65985;HTU21D;52748;51.112;5.880;2023-07-20T05:10:32;25.92;55.01
65985;HTU21D;52748;51.112;5.880;2023-07-20T05:12:59;25.92;54.88
65985;HTU21D;52748;51.112;5.880;2023-07-20T05:15:25;25.92;54.65
65985;HTU21D;52748;51.112;5.880;2023-07-20T05:17:52;25.95;54.58
65985;HTU21D;52748;51.112;5.880;2023-07-20T05:20:18;25.95;54.41
65985;HTU21D;52748;51.112;5.880;2023-07-20T05:22:44;25.96;54.32
65985;HTU21D;52748;51.112;5.880;2023-07-20T05:25:11;25.96;54.36
65985;HTU21D;52748;51.112;5.880;2023-07-20T05:27:38;25.97;54.39
65985;HTU21D;52748;51.112;5.880;2023-07-20T05:30:06;25.96;54.61
65985;HTU21D;52748;51.112;5.880;2023-07-20T05:32:33;25.96;54.55
65985;HTU21D;52748;51.112;5.880;2023-07-20T05:34:59;25.96;54.49
65985;HTU21D;52748;51.112;5.880;2023-07-20T05:37:24;25.95;54.69
65985;HTU21D;52748;51.112;5.880;2023-07-20T05:39:50;25.93;54.74
65985;HTU21D;52748;51.112;5.880;2023-07-20T05:42:16;25.93;54.63
65985;HTU21D;52748;51.112;5.880;2023-07-20T05:44:42;25.93;54.52
65985;HTU21D;52748;51.112;5.880;2023-07-20T05:47:08;25.93;54.36
65985;HTU21D;52748;51.112;5.880;2023-07-20T05:49:35;25.95;54.04
65985;HTU21D;52748;51.112;5.880;2023-07-20T05:52:01;25.94;54.01
65985;HTU21D;52748;51.112;5.880;2023-07-20T05:54:27;25.93;53.91
65985;HTU21D;52748;51.112;5.880;2023-07-20T05:56:53;25.93;53.88
65985;HTU21D;52748;51.112;5.880;2023-07-20T05:59:19;25.93;53.84
65985;HTU21D;52748;51.112;5.880;2023-07-20T06:01:46;25.93;53.82
65985;HTU21D;52748;51.112;5.880;2023-07-20T06:04:14;25.93;53.81
65985;HTU21D;52748;51.112;5.880;2023-07-20T06:06:40;25.92;53.84
65985;HTU21D;52748;51.112;5.880;2023-07-20T06:09:06;25.94;53.77
65985;HTU21D;52748;51.112;5.880;2023-07-20T06:11:38;25.94;53.71
65985;HTU21D;52748;51.112;5.880;2023-07-20T06:14:04;25.93;53.72
65985;HTU21D;52748;51.112;5.880;2023-07-20T06:16:30;25.93;53.75
65985;HTU21D;52748;51.112;5.880;2023-07-20T06:18:56;25.92;53.75
65985;HTU21D;52748;51.112;5.880;2023-07-20T06:21:23;25.94;53.77
65985;HTU21D;52748;51.112;5.880;2023-07-20T06:23:49;25.93;53.78
65985;HTU21D;52748;51.112;5.880;2023-07-20T06:26:14;25.91;53.76
65985;HTU21D;52748;51.112;5.880;2023-07-20T06:28:41;25.94;53.78
65985;HTU21D;52748;51.112;5.880;2023-07-20T06:31:07;25.92;54.01
65985;HTU21D;52748;51.112;5.880;2023-07-20T06:33:33;25.91;53.97
65985;HTU21D;52748;51.112;5.880;2023-07-20T06:36:00;25.83;54.18
65985;HTU21D;52748;51.112;5.880;2023-07-20T06:38:26;25.77;54.06
65985;HTU21D;52748;51.112;5.880;2023-07-20T06:40:52;25.72;54.25
65985;HTU21D;52748;51.112;5.880;2023-07-20T06:43:18;25.65;54.39
65985;HTU21D;52748;51.112;5.880;2023-07-20T06:45:44;25.59;54.36
65985;HTU21D;52748;51.112;5.880;2023-07-20T06:48:10;25.51;54.68
65985;HTU21D;52748;51.112;5.880;2023-07-20T06:50:36;25.42;55.06
65985;HTU21D;52748;51.112;5.880;2023-07-20T06:53:01;25.33;55.45
65985;HTU21D;52748;51.112;5.880;2023-07-20T06:55:29;25.25;55.67
65985;HTU21D;52748;51.112;5.880;2023-07-20T06:57:55;25.18;55.74
65985;HTU21D;52748;51.112;5.880;2023-07-20T07:00:21;25.10;55.87
65985;HTU21D;52748;51.112;5.880;2023-07-20T07:02:47;25.04;55.97
65985;HTU21D;52748;51.112;5.880;2023-07-20T07:05:13;24.99;55.92
65985;HTU21D;52748;51.112;5.880;2023-07-20T07:07:40;24.94;55.84
65985;HTU21D;52748;51.112;5.880;2023-07-20T07:10:06;24.93;55.38
65985;HTU21D;52748;51.112;5.880;2023-07-20T07:12:32;24.92;55.21
65985;HTU21D;52748;51.112;5.880;2023-07-20T07:14:58;24.93;55.35
65985;HTU21D;52748;51.112;5.880;2023-07-20T07:17:24;24.94;55.36
65985;HTU21D;52748;51.112;5.880;2023-07-20T07:19:52;24.98;55.12
65985;HTU21D;52748;51.112;5.880;2023-07-20T07:22:20;25.00;54.93
65985;HTU21D;52748;51.112;5.880;2023-07-20T07:24:47;25.02;54.45
65985;HTU21D;52748;51.112;5.880;2023-07-20T07:27:13;25.02;53.56
65985;HTU21D;52748;51.112;5.880;2023-07-20T07:29:42;25.04;53.27
65985;HTU21D;52748;51.112;5.880;2023-07-20T07:32:10;25.05;53.23
65985;HTU21D;52748;51.112;5.880;2023-07-20T07:34:37;25.07;53.46
65985;HTU21D;52748;51.112;5.880;2023-07-20T07:37:04;25.10;53.52
65985;HTU21D;52748;51.112;5.880;2023-07-20T07:39:30;25.12;53.46
65985;HTU21D;52748;51.112;5.880;2023-07-20T07:41:56;25.15;53.69
65985;HTU21D;52748;51.112;5.880;2023-07-20T07:44:23;25.17;53.65
65985;HTU21D;52748;51.112;5.880;2023-07-20T07:46:49;25.20;53.65
65985;HTU21D;52748;51.112;5.880;2023-07-20T07:49:16;25.29;53.39
65985;HTU21D;52748;51.112;5.880;2023-07-20T07:51:44;25.29;53.55
65985;HTU21D;52748;51.112;5.880;2023-07-20T07:54:10;25.33;53.46
65985;HTU21D;52748;51.112;5.880;2023-07-20T07:56:35;25.34;53.18
65985;HTU21D;52748;51.112;5.880;2023-07-20T07:59:01;25.35;53.19
65985;HTU21D;52748;51.112;5.880;2023-07-20T08:01:28;25.38;53.37
65985;HTU21D;52748;51.112;5.880;2023-07-20T08:03:54;25.47;53.36
65985;HTU21D;52748;51.112;5.880;2023-07-20T08:06:20;25.52;53.08
65985;HTU21D;52748;51.112;5.880;2023-07-20T08:08:46;25.58;52.20
65985;HTU21D;52748;51.112;5.880;2023-07-20T08:11:11;25.62;51.52
65985;HTU21D;52748;51.112;5.880;2023-07-20T08:13:37;25.68;50.75
65985;HTU21D;52748;51.112;5.880;2023-07-20T08:16:04;25.71;51.07
65985;HTU21D;52748;51.112;5.880;2023-07-20T08:18:29;25.73;51.10
65985;HTU21D;52748;51.112;5.880;2023-07-20T08:20:55;25.73;50.66
65985;HTU21D;52748;51.112;5.880;2023-07-20T08:23:21;25.68;50.72
65985;HTU21D;52748;51.112;5.880;2023-07-20T08:25:47;25.64;50.89
65985;HTU21D;52748;51.112;5.880;2023-07-20T08:28:17;25.59;50.90
65985;HTU21D;52748;51.112;5.880;2023-07-20T08:30:48;25.51;50.59
65985;HTU21D;52748;51.112;5.880;2023-07-20T08:33:16;25.49;50.64
65985;HTU21D;52748;51.112;5.880;2023-07-20T08:35:44;25.51;50.56
65985;HTU21D;52748;51.112;5.880;2023-07-20T08:38:11;25.52;50.27
65985;HTU21D;52748;51.112;5.880;2023-07-20T08:40:42;25.54;50.69
65985;HTU21D;52748;51.112;5.880;2023-07-20T08:43:10;25.58;50.66
65985;HTU21D;52748;51.112;5.880;2023-07-20T08:45:38;25.59;50.18
65985;HTU21D;52748;51.112;5.880;2023-07-20T08:48:06;25.57;49.21
65985;HTU21D;52748;51.112;5.880;2023-07-20T08:50:33;25.52;48.73
65985;HTU21D;52748;51.112;5.880;2023-07-20T08:53:01;25.49;48.31
65985;HTU21D;52748;51.112;5.880;2023-07-20T08:55:29;25.50;48.55
65985;HTU21D;52748;51.112;5.880;2023-07-20T08:57:56;25.57;48.70
65985;HTU21D;52748;51.112;5.880;2023-07-20T09:00:23;25.62;48.41
65985;HTU21D;52748;51.112;5.880;2023-07-20T09:02:52;25.67;48.18
65985;HTU21D;52748;51.112;5.880;2023-07-20T09:05:18;25.74;48.13
65985;HTU21D;52748;51.112;5.880;2023-07-20T09:07:45;25.80;47.67
65985;HTU21D;52748;51.112;5.880;2023-07-20T09:10:11;25.84;47.80
65985;HTU21D;52748;51.112;5.880;2023-07-20T09:12:42;25.89;47.88
65985;HTU21D;52748;51.112;5.880;2023-07-20T09:15:10;25.91;47.72
65985;HTU21D;52748;51.112;5.880;2023-07-20T09:17:36;25.96;47.58
65985;HTU21D;52748;51.112;5.880;2023-07-20T09:20:05;26.02;47.88
65985;HTU21D;52748;51.112;5.880;2023-07-20T09:22:39;26.04;47.12
65985;HTU21D;52748;51.112;5.880;2023-07-20T09:25:18;26.05;47.17
65985;HTU21D;52748;51.112;5.880;2023-07-20T09:27:49;26.07;46.82
65985;HTU21D;52748;51.112;5.880;2023-07-20T09:30:16;26.09;46.12
65985;HTU21D;52748;51.112;5.880;2023-07-20T09:32:45;26.10;45.67
65985;HTU21D;52748;51.112;5.880;2023-07-20T09:35:24;26.15;45.56
65985;HTU21D;52748;51.112;5.880;2023-07-20T09:37:58;26.15;45.15
65985;HTU21D;52748;51.112;5.880;2023-07-20T09:40:25;26.16;45.04
65985;HTU21D;52748;51.112;5.880;2023-07-20T09:42:53;26.18;45.08
65985;HTU21D;52748;51.112;5.880;2023-07-20T09:45:39;26.18;45.08
65985;HTU21D;52748;51.112;5.880;2023-07-20T09:48:06;26.17;45.03
65985;HTU21D;52748;51.112;5.880;2023-07-20T09:50:58;26.16;46.00
65985;HTU21D;52748;51.112;5.880;2023-07-20T09:53:25;26.17;47.28
65985;HTU21D;52748;51.112;5.880;2023-07-20T09:55:53;26.19;47.97
65985;HTU21D;52748;51.112;5.880;2023-07-20T09:58:19;26.18;48.37
65985;HTU21D;52748;51.112;5.880;2023-07-20T10:00:46;26.19;48.72
65985;HTU21D;52748;51.112;5.880;2023-07-20T10:03:21;26.20;48.92
65985;HTU21D;52748;51.112;5.880;2023-07-20T10:06:01;26.22;48.87
65985;HTU21D;52748;51.112;5.880;2023-07-20T10:08:30;26.25;49.19
65985;HTU21D;52748;51.112;5.880;2023-07-20T10:10:59;26.31;49.43
65985;HTU21D;52748;51.112;5.880;2023-07-20T10:13:28;26.34;49.24
65985;HTU21D;52748;51.112;5.880;2023-07-20T10:16:01;26.35;49.03
65985;HTU21D;52748;51.112;5.880;2023-07-20T10:18:34;26.38;49.26
65985;HTU21D;52748;51.112;5.880;2023-07-20T10:21:01;26.41;49.43
65985;HTU21D;52748;51.112;5.880;2023-07-20T10:23:29;26.43;49.61
65985;HTU21D;52748;51.112;5.880;2023-07-20T10:25:57;26.45;49.65
65985;HTU21D;52748;51.112;5.880;2023-07-20T10:28:24;26.47;49.68
65985;HTU21D;52748;51.112;5.880;2023-07-20T10:30:50;26.48;49.70
65985;HTU21D;52748;51.112;5.880;2023-07-20T10:33:17;26.50;49.76
65985;HTU21D;52748;51.112;5.880;2023-07-20T10:36:01;26.51;49.81
65985;HTU21D;52748;51.112;5.880;2023-07-20T10:41:20;26.53;49.78
65985;HTU21D;52748;51.112;5.880;2023-07-20T10:43:47;26.53;49.80
65985;HTU21D;52748;51.112;5.880;2023-07-20T10:46:14;26.55;49.89
65985;HTU21D;52748;51.112;5.880;2023-07-20T10:51:28;26.57;49.63
65985;HTU21D;52748;51.112;5.880;2023-07-20T10:53:57;26.57;49.57
65985;HTU21D;52748;51.112;5.880;2023-07-20T10:56:28;26.57;49.63
65985;HTU21D;52748;51.112;5.880;2023-07-20T10:58:59;26.57;49.66
65985;HTU21D;52748;51.112;5.880;2023-07-20T11:01:30;26.56;49.75
65985;HTU21D;52748;51.112;5.880;2023-07-20T11:03:58;26.56;49.70
65985;HTU21D;52748;51.112;5.880;2023-07-20T11:11:38;26.54;49.81
65985;HTU21D;52748;51.112;5.880;2023-07-20T11:14:06;26.55;49.85
65985;HTU21D;52748;51.112;5.880;2023-07-20T11:16:33;26.55;49.44
65985;HTU21D;52748;51.112;5.880;2023-07-20T11:19:00;26.54;49.63
65985;HTU21D;52748;51.112;5.880;2023-07-20T11:21:26;26.54;49.83
65985;HTU21D;52748;51.112;5.880;2023-07-20T11:23:53;26.53;49.79
65985;HTU21D;52748;51.112;5.880;2023-07-20T11:26:19;26.53;49.86
65985;HTU21D;52748;51.112;5.880;2023-07-20T11:28:51;26.53;49.98
65985;HTU21D;52748;51.112;5.880;2023-07-20T11:31:18;26.51;49.98
65985;HTU21D;52748;51.112;5.880;2023-07-20T11:33:44;26.51;50.01
65985;HTU21D;52748;51.112;5.880;2023-07-20T11:36:11;26.52;50.08
65985;HTU21D;52748;51.112;5.880;2023-07-20T11:38:36;26.50;50.09
65985;HTU21D;52748;51.112;5.880;2023-07-20T11:41:03;26.51;50.11
65985;HTU21D;52748;51.112;5.880;2023-07-20T11:43:29;26.51;50.05
65985;HTU21D;52748;51.112;5.880;2023-07-20T11:45:56;26.50;50.10
65985;HTU21D;52748;51.112;5.880;2023-07-20T11:48:21;26.50;50.08
65985;HTU21D;52748;51.112;5.880;2023-07-20T11:50:47;26.51;50.02
65985;HTU21D;52748;51.112;5.880;2023-07-20T11:53:14;26.51;50.16
65985;HTU21D;52748;51.112;5.880;2023-07-20T11:55:42;26.50;50.11
65985;HTU21D;52748;51.112;5.880;2023-07-20T11:58:09;26.50;50.15
65985;HTU21D;52748;51.112;5.880;2023-07-20T12:00:37;26.50;50.26
65985;HTU21D;52748;51.112;5.880;2023-07-20T12:03:06;26.49;50.27
65985;HTU21D;52748;51.112;5.880;2023-07-20T12:05:38;26.50;50.28
65985;HTU21D;52748;51.112;5.880;2023-07-20T12:08:04;26.49;50.34
65985;HTU21D;52748;51.112;5.880;2023-07-20T12:10:30;26.49;50.37
65985;HTU21D;52748;51.112;5.880;2023-07-20T12:13:03;26.48;50.37
65985;HTU21D;52748;51.112;5.880;2023-07-20T12:15:32;26.48;50.36
65985;HTU21D;52748;51.112;5.880;2023-07-20T12:18:03;26.48;50.37
65985;HTU21D;52748;51.112;5.880;2023-07-20T12:20:34;26.49;50.42
65985;HTU21D;52748;51.112;5.880;2023-07-20T12:23:05;26.50;50.45
65985;HTU21D;52748;51.112;5.880;2023-07-20T12:25:42;26.49;50.41
65985;HTU21D;52748;51.112;5.880;2023-07-20T12:28:10;26.49;50.40
65985;HTU21D;52748;51.112;5.880;2023-07-20T12:30:37;26.49;50.45
65985;HTU21D;52748;51.112;5.880;2023-07-20T12:33:04;26.49;50.47
65985;HTU21D;52748;51.112;5.880;2023-07-20T12:35:30;26.49;50.50
65985;HTU21D;52748;51.112;5.880;2023-07-20T12:37:57;26.50;50.49
65985;HTU21D;52748;51.112;5.880;2023-07-20T12:40:23;26.50;50.49
65985;HTU21D;52748;51.112;5.880;2023-07-20T12:42:49;26.51;50.50
65985;HTU21D;52748;51.112;5.880;2023-07-20T12:45:15;26.50;50.49
65985;HTU21D;52748;51.112;5.880;2023-07-20T12:47:42;26.50;50.48
65985;HTU21D;52748;51.112;5.880;2023-07-20T12:50:12;26.50;50.60
65985;HTU21D;52748;51.112;5.880;2023-07-20T12:52:39;26.49;50.86
65985;HTU21D;52748;51.112;5.880;2023-07-20T12:55:07;26.49;51.76
65985;HTU21D;52748;51.112;5.880;2023-07-20T12:57:34;26.49;51.96
65985;HTU21D;52748;51.112;5.880;2023-07-20T13:00:02;26.50;51.90
65985;HTU21D;52748;51.112;5.880;2023-07-20T13:02:30;26.50;51.72
65985;HTU21D;52748;51.112;5.880;2023-07-20T13:04:56;26.50;51.53
65985;HTU21D;52748;51.112;5.880;2023-07-20T13:07:30;26.50;51.38
65985;HTU21D;52748;51.112;5.880;2023-07-20T13:10:01;26.51;51.23
65985;HTU21D;52748;51.112;5.880;2023-07-20T13:12:27;26.50;51.00
65985;HTU21D;52748;51.112;5.880;2023-07-20T13:14:54;26.51;50.81
65985;HTU21D;52748;51.112;5.880;2023-07-20T13:17:20;26.51;50.74
65985;HTU21D;52748;51.112;5.880;2023-07-20T13:19:46;26.51;50.14
65985;HTU21D;52748;51.112;5.880;2023-07-20T13:22:12;26.51;50.10
65985;HTU21D;52748;51.112;5.880;2023-07-20T13:24:39;26.53;50.18
65985;HTU21D;52748;51.112;5.880;2023-07-20T13:27:05;26.53;50.15
65985;HTU21D;52748;51.112;5.880;2023-07-20T13:29:31;26.53;50.08
65985;HTU21D;52748;51.112;5.880;2023-07-20T13:31:57;26.55;50.07
65985;HTU21D;52748;51.112;5.880;2023-07-20T13:34:23;26.54;49.98
65985;HTU21D;52748;51.112;5.880;2023-07-20T13:36:49;26.55;50.02
65985;HTU21D;52748;51.112;5.880;2023-07-20T13:39:15;26.56;49.23
65985;HTU21D;52748;51.112;5.880;2023-07-20T13:41:41;26.53;46.74
65985;HTU21D;52748;51.112;5.880;2023-07-20T13:44:07;26.53;44.93
65985;HTU21D;52748;51.112;5.880;2023-07-20T13:46:33;26.53;44.17
65985;HTU21D;52748;51.112;5.880;2023-07-20T13:49:00;26.55;43.38
65985;HTU21D;52748;51.112;5.880;2023-07-20T13:51:26;26.53;42.81
65985;HTU21D;52748;51.112;5.880;2023-07-20T13:53:52;26.53;42.62
65985;HTU21D;52748;51.112;5.880;2023-07-20T13:56:17;26.53;42.84
65985;HTU21D;52748;51.112;5.880;2023-07-20T13:58:43;26.53;42.47
65985;HTU21D;52748;51.112;5.880;2023-07-20T14:01:09;26.49;43.47
65985;HTU21D;52748;51.112;5.880;2023-07-20T14:03:35;26.42;43.47
65985;HTU21D;52748;51.112;5.880;2023-07-20T14:06:01;26.40;42.90
65985;HTU21D;52748;51.112;5.880;2023-07-20T14:08:27;26.35;42.90
65985;HTU21D;52748;51.112;5.880;2023-07-20T14:10:55;26.35;42.79
65985;HTU21D;52748;51.112;5.880;2023-07-20T14:13:21;26.36;42.52
65985;HTU21D;52748;51.112;5.880;2023-07-20T14:15:48;26.36;42.57
65985;HTU21D;52748;51.112;5.880;2023-07-20T14:18:16;26.39;42.29
65985;HTU21D;52748;51.112;5.880;2023-07-20T14:20:42;26.43;41.78
65985;HTU21D;52748;51.112;5.880;2023-07-20T14:23:09;26.46;40.82
65985;HTU21D;52748;51.112;5.880;2023-07-20T14:25:35;26.46;41.24
65985;HTU21D;52748;51.112;5.880;2023-07-20T14:28:01;26.49;41.80
65985;HTU21D;52748;51.112;5.880;2023-07-20T14:30:27;26.49;42.55
65985;HTU21D;52748;51.112;5.880;2023-07-20T14:32:53;26.53;42.97
65985;HTU21D;52748;51.112;5.880;2023-07-20T14:35:19;26.53;43.26
65985;HTU21D;52748;51.112;5.880;2023-07-20T14:37:45;26.54;43.52
65985;HTU21D;52748;51.112;5.880;2023-07-20T14:40:15;26.53;43.82
65985;HTU21D;52748;51.112;5.880;2023-07-20T14:42:41;26.56;44.00
65985;HTU21D;52748;51.112;5.880;2023-07-20T14:45:07;26.55;44.24
65985;HTU21D;52748;51.112;5.880;2023-07-20T14:47:33;26.57;44.42
65985;HTU21D;52748;51.112;5.880;2023-07-20T14:50:01;26.57;44.61
65985;HTU21D;52748;51.112;5.880;2023-07-20T14:52:30;26.57;44.73
65985;HTU21D;52748;51.112;5.880;2023-07-20T14:54:56;26.58;44.90
65985;HTU21D;52748;51.112;5.880;2023-07-20T14:57:22;26.60;45.05
65985;HTU21D;52748;51.112;5.880;2023-07-20T14:59:49;26.61;45.18
65985;HTU21D;52748;51.112;5.880;2023-07-20T15:02:15;26.61;45.34
65985;HTU21D;52748;51.112;5.880;2023-07-20T15:04:49;26.60;45.47
65985;HTU21D;52748;51.112;5.880;2023-07-20T15:07:19;26.62;45.53
65985;HTU21D;52748;51.112;5.880;2023-07-20T15:09:45;26.60;45.66
65985;HTU21D;52748;51.112;5.880;2023-07-20T15:12:11;26.58;45.73
65985;HTU21D;52748;51.112;5.880;2023-07-20T15:14:41;26.60;45.86
65985;HTU21D;52748;51.112;5.880;2023-07-20T15:17:09;26.61;45.99
65985;HTU21D;52748;51.112;5.880;2023-07-20T15:19:35;26.61;46.06
65985;HTU21D;52748;51.112;5.880;2023-07-20T15:22:02;26.61;46.17
65985;HTU21D;52748;51.112;5.880;2023-07-20T15:24:34;26.62;46.26
65985;HTU21D;52748;51.112;5.880;2023-07-20T15:27:01;26.60;46.38
65985;HTU21D;52748;51.112;5.880;2023-07-20T15:29:28;26.60;46.44
65985;HTU21D;52748;51.112;5.880;2023-07-20T15:31:54;26.61;46.54
65985;HTU21D;52748;51.112;5.880;2023-07-20T15:34:20;26.61;46.59